Time;durP1;ratioP1;P1;durP2;ratioP2;P2;SDS_P1;SDS_P2;PMS_P1;PMS_P2;Temp;Humidity;BMP_temperature;BMP_pressure;BME280_temperature;BME280_humidity;BME280_pressure;Samples;Min_cycle;Max_cycle;Signal;HPM_P1;HPM_P2
2023/05/05 00:00:52;;;;;;;;;;;12.90;99.90;;;;;;5076987;28;19992;-60
2023/05/05 00:03:21;;;;;;;;;;;12.90;99.90;;;;;;5077079;28;20351;-61
2023/05/05 00:05:47;;;;;;;;;;;12.90;99.90;;;;;;5076705;28;19986;-62
2023/05/05 00:08:13;;;;;;;;;;;12.90;99.90;;;;;;5077097;28;20039;-63
2023/05/05 00:10:38;;;;;;;;;;;12.80;99.90;;;;;;5076800;28;20102;-61
2023/05/05 00:13:04;;;;;;;;;;;12.80;99.90;;;;;;5076744;28;20352;-61
2023/05/05 00:15:29;;;;;;;;;;;12.70;99.90;;;;;;5076919;28;20021;-62
2023/05/05 00:17:55;;;;;;;;;;;12.60;99.90;;;;;;5076635;28;20424;-62
2023/05/05 00:20:21;;;;;;;;;;;12.60;99.90;;;;;;5076163;28;20412;-62
2023/05/05 00:22:47;;;;;;;;;;;12.70;99.90;;;;;;5076577;28;19985;-62
2023/05/05 00:25:13;;;;;;;;;;;12.70;99.90;;;;;;5076473;28;20042;-62
2023/05/05 00:27:38;;;;;;;;;;;12.70;99.90;;;;;;5076391;28;20029;-61
2023/05/05 00:30:04;;;;;;;;;;;12.70;99.90;;;;;;5076373;28;20071;-61
2023/05/05 00:32:30;;;;;;;;;;;12.70;99.90;;;;;;5076451;28;19986;-61
2023/05/05 00:34:55;;;;;;;;;;;12.70;99.90;;;;;;5075961;28;20072;-63
2023/05/05 00:37:21;;;;;;;;;;;12.70;99.90;;;;;;5076178;28;20462;-61
2023/05/05 00:39:46;;;;;;;;;;;12.60;99.90;;;;;;5076009;28;20069;-63
2023/05/05 00:42:12;;;;;;;;;;;12.60;99.90;;;;;;5076283;28;19985;-61
2023/05/05 00:44:39;;;;;;;;;;;12.60;99.90;;;;;;5076047;28;20039;-62
2023/05/05 00:47:04;;;;;;;;;;;12.50;99.90;;;;;;5076228;28;20354;-62
2023/05/05 00:49:31;;;;;;;;;;;12.40;99.90;;;;;;5075955;28;19992;-61
2023/05/05 00:51:57;;;;;;;;;;;12.40;99.90;;;;;;5075994;28;20012;-60
2023/05/05 00:54:22;;;;;;;;;;;12.30;99.90;;;;;;5076485;28;20019;-61
2023/05/05 00:56:49;;;;;;;;;;;12.30;99.90;;;;;;5075915;28;19993;-63
2023/05/05 00:59:15;;;;;;;;;;;12.30;99.90;;;;;;5076032;28;20009;-62
2023/05/05 01:01:40;;;;;;;;;;;12.20;99.90;;;;;;5075891;28;20035;-61
2023/05/05 01:04:06;;;;;;;;;;;12.20;99.90;;;;;;5075904;28;20514;-61
2023/05/05 01:06:47;;;;;;;;;;;12.30;99.90;;;;;;5075656;28;20393;-61
2023/05/05 01:09:18;;;;;;;;;;;12.20;99.90;;;;;;5075738;28;19985;-63
2023/05/05 01:11:53;;;;;;;;;;;12.20;99.90;;;;;;5075566;28;20029;-61
2023/05/05 01:14:19;;;;;;;;;;;12.20;99.90;;;;;;5075630;28;19985;-62
2023/05/05 01:16:54;;;;;;;;;;;12.20;99.90;;;;;;5075416;28;19990;-63
2023/05/05 01:19:32;;;;;;;;;;;12.10;99.90;;;;;;5075367;28;20004;-62
2023/05/05 01:21:59;;;;;;;;;;;12.00;99.90;;;;;;5075501;28;20072;-61
2023/05/05 01:24:37;;;;;;;;;;;12.10;99.90;;;;;;5075369;28;20360;-61
2023/05/05 01:27:15;;;;;;;;;;;12.00;99.90;;;;;;5075449;28;20351;-61
2023/05/05 01:29:40;;;;;;;;;;;12.10;99.90;;;;;;5075218;28;19989;-61
2023/05/05 01:32:08;;;;;;;;;;;12.00;99.90;;;;;;5075110;28;19997;-62
2023/05/05 01:34:35;;;;;;;;;;;12.00;99.90;;;;;;5075211;28;20440;-61
2023/05/05 01:37:05;;;;;;;;;;;12.10;99.90;;;;;;5075365;28;20085;-62
2023/05/05 01:39:32;;;;;;;;;;;12.10;99.90;;;;;;5074931;28;20028;-62
2023/05/05 01:42:01;;;;;;;;;;;12.00;99.90;;;;;;5075083;28;19985;-62
2023/05/05 01:44:27;;;;;;;;;;;12.00;99.90;;;;;;5074888;28;19989;-62
2023/05/05 01:46:53;;;;;;;;;;;12.00;99.90;;;;;;5074152;28;20395;-61
2023/05/05 01:49:19;;;;;;;;;;;12.00;99.90;;;;;;5075144;28;20126;-62
2023/05/05 01:51:45;;;;;;;;;;;11.90;99.90;;;;;;5074679;28;20435;-61
2023/05/05 01:54:12;;;;;;;;;;;11.90;99.90;;;;;;5073543;28;20368;-62
2023/05/05 01:56:38;;;;;;;;;;;11.80;99.90;;;;;;5074791;28;20050;-61
2023/05/05 01:59:05;;;;;;;;;;;11.80;99.90;;;;;;5074563;28;20051;-61
2023/05/05 02:01:34;;;;;;;;;;;11.80;99.90;;;;;;5074546;28;20080;-61
2023/05/05 02:04:00;;;;;;;;;;;11.70;99.90;;;;;;5074641;28;20384;-61
2023/05/05 02:06:27;;;;;;;;;;;11.70;99.90;;;;;;5074512;28;20031;-61
2023/05/05 02:08:53;;;;;;;;;;;11.70;99.90;;;;;;5074594;28;20432;-61
2023/05/05 02:11:20;;;;;;;;;;;11.70;99.90;;;;;;5074560;28;19996;-62
2023/05/05 02:13:47;;;;;;;;;;;11.60;99.90;;;;;;5074381;28;20148;-62
2023/05/05 02:16:12;;;;;;;;;;;11.60;99.90;;;;;;5074418;28;20427;-62
2023/05/05 02:18:39;;;;;;;;;;;11.60;99.90;;;;;;5074270;28;20005;-61
2023/05/05 02:21:06;;;;;;;;;;;11.60;99.90;;;;;;5074278;28;19989;-61
2023/05/05 02:23:32;;;;;;;;;;;11.70;99.90;;;;;;5074164;28;19985;-62
2023/05/05 02:26:05;;;;;;;;;;;11.60;99.90;;;;;;5074248;28;19985;-62
2023/05/05 02:28:34;;;;;;;;;;;11.60;99.90;;;;;;5074398;28;19993;-62
2023/05/05 02:30:59;;;;;;;;;;;11.60;99.90;;;;;;5073972;28;20000;-61
2023/05/05 02:33:26;;;;;;;;;;;11.60;99.90;;;;;;5074380;28;20079;-62
2023/05/05 02:35:53;;;;;;;;;;;11.60;99.90;;;;;;5074538;28;20035;-62
2023/05/05 02:38:20;;;;;;;;;;;11.60;99.90;;;;;;5073660;28;20380;-61
2023/05/05 02:40:47;;;;;;;;;;;11.50;99.90;;;;;;5073977;28;19992;-61
2023/05/05 02:43:15;;;;;;;;;;;11.50;99.90;;;;;;5073906;28;19989;-61
2023/05/05 02:45:41;;;;;;;;;;;11.50;99.90;;;;;;5073978;28;19990;-61
2023/05/05 02:48:06;;;;;;;;;;;11.50;99.90;;;;;;5073849;28;19985;-60
2023/05/05 02:50:32;;;;;;;;;;;11.40;99.90;;;;;;5073960;28;20074;-62
2023/05/05 02:52:58;;;;;;;;;;;11.40;99.90;;;;;;5073733;28;19986;-60
2023/05/05 02:55:30;;;;;;;;;;;11.40;99.90;;;;;;5073813;28;20565;-61
2023/05/05 02:58:01;;;;;;;;;;;11.40;99.90;;;;;;5072696;28;20038;-62
2023/05/05 03:00:35;;;;;;;;;;;11.40;99.90;;;;;;5073660;28;20450;-61
2023/05/05 03:03:08;;;;;;;;;;;11.40;99.90;;;;;;5073707;28;20422;-62
2023/05/05 03:05:41;;;;;;;;;;;11.30;99.90;;;;;;5073606;28;19985;-61
2023/05/05 03:08:15;;;;;;;;;;;11.30;99.90;;;;;;5073669;28;19992;-61
2023/05/05 03:10:50;;;;;;;;;;;11.20;99.90;;;;;;5073602;28;19992;-61
2023/05/05 03:13:17;;;;;;;;;;;11.20;99.90;;;;;;5073590;28;19984;-61
2023/05/05 03:15:44;;;;;;;;;;;11.20;99.90;;;;;;5073683;28;20457;-62
2023/05/05 03:18:11;;;;;;;;;;;11.20;99.90;;;;;;5073454;28;20447;-61
2023/05/05 03:20:39;;;;;;;;;;;11.20;99.90;;;;;;5073521;28;20029;-62
2023/05/05 03:23:05;;;;;;;;;;;11.20;99.90;;;;;;5073829;28;19996;-62
2023/05/05 03:25:43;;;;;;;;;;;11.20;99.90;;;;;;5073421;28;20072;-61
2023/05/05 03:28:09;;;;;;;;;;;11.10;99.90;;;;;;5073321;28;19993;-61
2023/05/05 03:30:34;;;;;;;;;;;11.10;99.90;;;;;;5073480;28;20328;-62
2023/05/05 03:33:00;;;;;;;;;;;11.00;99.90;;;;;;5073660;28;19996;-63
2023/05/05 03:35:26;;;;;;;;;;;11.00;99.90;;;;;;5073391;28;20021;-62
2023/05/05 03:37:51;;;;;;;;;;;11.00;99.90;;;;;;5073423;28;20001;-61
2023/05/05 03:40:17;;;;;;;;;;;11.00;99.90;;;;;;5073015;28;20025;-61
2023/05/05 03:42:42;;;;;;;;;;;11.10;99.90;;;;;;5073167;28;19985;-62
2023/05/05 03:45:08;;;;;;;;;;;11.00;99.90;;;;;;5073261;28;19993;-62
2023/05/05 03:47:34;;;;;;;;;;;11.00;99.90;;;;;;5073237;28;20029;-61
2023/05/05 03:50:00;;;;;;;;;;;11.00;99.90;;;;;;5073256;28;20092;-62
2023/05/05 03:52:25;;;;;;;;;;;11.00;99.90;;;;;;5073201;28;19993;-62
2023/05/05 03:54:51;;;;;;;;;;;11.00;99.90;;;;;;5073177;28;19985;-61
2023/05/05 03:57:16;;;;;;;;;;;11.00;99.90;;;;;;5073128;28;19990;-62
2023/05/05 03:59:42;;;;;;;;;;;11.00;99.90;;;;;;5073083;28;20009;-62
2023/05/05 04:02:07;;;;;;;;;;;11.00;99.90;;;;;;5073183;28;20024;-60
2023/05/05 04:04:33;;;;;;;;;;;11.10;99.90;;;;;;5073040;28;19989;-61
2023/05/05 04:06:59;;;;;;;;;;;11.10;99.90;;;;;;5073225;28;19997;-61
2023/05/05 04:09:24;;;;;;;;;;;11.20;99.90;;;;;;5074080;28;19985;-61
2023/05/05 04:11:50;;;;;;;;;;;11.20;99.90;;;;;;5076496;28;19986;-60
2023/05/05 04:14:15;;;;;;;;;;;11.20;99.90;;;;;;5076674;28;19993;-61
2023/05/05 04:16:41;;;;;;;;;;;11.20;99.90;;;;;;5076989;28;19989;-61
2023/05/05 04:19:06;;;;;;;;;;;11.20;99.90;;;;;;5076483;28;20071;-62
2023/05/05 04:21:32;;;;;;;;;;;11.30;99.90;;;;;;5076782;28;19991;-62
2023/05/05 04:23:57;;;;;;;;;;;11.40;99.90;;;;;;5076524;28;20458;-61
2023/05/05 04:26:23;;;;;;;;;;;11.40;99.90;;;;;;5076359;28;20012;-62
2023/05/05 04:28:49;;;;;;;;;;;11.40;99.90;;;;;;5076434;28;19989;-62
2023/05/05 04:31:14;;;;;;;;;;;11.40;99.90;;;;;;5076448;28;19985;-62
2023/05/05 04:33:40;;;;;;;;;;;11.50;99.90;;;;;;5076441;28;19994;-62
2023/05/05 04:36:05;;;;;;;;;;;11.60;99.90;;;;;;5076531;28;19993;-61
2023/05/05 04:38:31;;;;;;;;;;;11.70;99.90;;;;;;5076112;28;20130;-61
2023/05/05 04:40:57;;;;;;;;;;;11.70;99.90;;;;;;5076322;28;19989;-62
2023/05/05 04:43:22;;;;;;;;;;;11.70;99.90;;;;;;5076217;28;19985;-61
2023/05/05 04:45:54;;;;;;;;;;;11.80;99.90;;;;;;5076512;28;20447;-62
2023/05/05 04:48:20;;;;;;;;;;;11.80;99.90;;;;;;5076117;28;19992;-62
2023/05/05 04:50:45;;;;;;;;;;;11.90;99.90;;;;;;5076305;28;19989;-62
2023/05/05 04:53:11;;;;;;;;;;;12.00;99.90;;;;;;5076876;28;19989;-62
2023/05/05 04:55:37;;;;;;;;;;;12.00;99.90;;;;;;5096098;28;20032;-62
2023/05/05 04:58:03;;;;;;;;;;;12.00;99.90;;;;;;5088718;28;20464;-61
2023/05/05 05:00:29;;;;;;;;;;;12.00;99.90;;;;;;5092254;28;20107;-61
2023/05/05 05:02:54;;;;;;;;;;;12.10;99.90;;;;;;5096094;28;19985;-62
2023/05/05 05:05:20;;;;;;;;;;;12.20;99.90;;;;;;5095072;28;20462;-60
2023/05/05 05:07:46;;;;;;;;;;;12.30;99.90;;;;;;5079084;28;19994;-61
2023/05/05 05:10:11;;;;;;;;;;;12.30;99.90;;;;;;5075415;28;19986;-61
2023/05/05 05:12:37;;;;;;;;;;;12.30;99.90;;;;;;5075618;28;20325;-62
2023/05/05 05:15:03;;;;;;;;;;;12.40;99.90;;;;;;5075009;28;19985;-63
2023/05/05 05:17:29;;;;;;;;;;;12.50;99.90;;;;;;5074918;28;19986;-62
2023/05/05 05:19:55;;;;;;;;;;;12.60;99.90;;;;;;5074620;28;20092;-62
2023/05/05 05:22:21;;;;;;;;;;;12.50;99.90;;;;;;5074192;28;19992;-63
2023/05/05 05:24:46;;;;;;;;;;;12.40;99.90;;;;;;5075294;28;19986;-62
2023/05/05 05:27:12;;;;;;;;;;;12.40;99.90;;;;;;5074513;28;20091;-63
2023/05/05 05:29:37;;;;;;;;;;;12.40;99.90;;;;;;5092705;28;19993;-63
2023/05/05 05:32:03;;;;;;;;;;;12.50;99.90;;;;;;5090799;28;19989;-61
2023/05/05 05:34:29;;;;;;;;;;;12.60;99.90;;;;;;5085143;28;19993;-61
2023/05/05 05:36:54;;;;;;;;;;;12.80;99.90;;;;;;5074881;28;19985;-62
2023/05/05 05:39:20;;;;;;;;;;;12.90;99.90;;;;;;5074483;28;20031;-61
2023/05/05 05:41:46;;;;;;;;;;;12.90;99.90;;;;;;5074261;28;19986;-63
2023/05/05 05:44:11;;;;;;;;;;;13.10;99.90;;;;;;5074683;28;20009;-63
2023/05/05 05:46:37;;;;;;;;;;;13.10;99.90;;;;;;5074540;28;20008;-62
2023/05/05 05:49:02;;;;;;;;;;;13.30;99.90;;;;;;5074477;28;20095;-60
2023/05/05 05:51:29;;;;;;;;;;;13.40;99.90;;;;;;5074546;28;20129;-62
2023/05/05 05:53:55;;;;;;;;;;;13.50;99.90;;;;;;5082645;28;20027;-63
2023/05/05 05:56:20;;;;;;;;;;;13.60;99.90;;;;;;5077068;28;20025;-63
2023/05/05 05:58:47;;;;;;;;;;;13.80;99.90;;;;;;5079428;28;20009;-61
2023/05/05 06:01:13;;;;;;;;;;;13.90;99.90;;;;;;5093251;28;19985;-63
2023/05/05 06:03:38;;;;;;;;;;;14.10;99.90;;;;;;5093993;28;19993;-61
2023/05/05 06:06:04;;;;;;;;;;;14.10;99.90;;;;;;5081325;28;19990;-61
2023/05/05 06:08:30;;;;;;;;;;;14.20;99.90;;;;;;5075688;28;20037;-61
2023/05/05 06:10:55;;;;;;;;;;;14.30;99.90;;;;;;5081263;28;20016;-62
2023/05/05 06:13:21;;;;;;;;;;;14.50;99.90;;;;;;5093119;28;20031;-63
2023/05/05 06:15:47;;;;;;;;;;;14.70;99.90;;;;;;5086192;28;19989;-63
2023/05/05 06:18:12;;;;;;;;;;;14.80;99.90;;;;;;5082049;28;19997;-61
2023/05/05 06:20:38;;;;;;;;;;;15.00;99.90;;;;;;5067298;28;20308;-62
2023/05/05 06:23:07;;;;;;;;;;;15.10;99.90;;;;;;5085648;28;19989;-63
2023/05/05 06:25:33;;;;;;;;;;;15.20;99.90;;;;;;5093145;28;20000;-63
2023/05/05 06:27:59;;;;;;;;;;;15.30;99.90;;;;;;5093562;28;19993;-61
2023/05/05 06:30:25;;;;;;;;;;;15.30;99.90;;;;;;5090571;28;19989;-63
2023/05/05 06:32:50;;;;;;;;;;;15.50;99.90;;;;;;5090912;28;20455;-61
2023/05/05 06:35:16;;;;;;;;;;;15.40;99.90;;;;;;5088286;28;19996;-61
2023/05/05 06:37:43;;;;;;;;;;;15.40;99.90;;;;;;5090311;28;20519;-62
2023/05/05 06:40:09;;;;;;;;;;;15.50;99.90;;;;;;5092774;28;20074;-63
2023/05/05 06:42:35;;;;;;;;;;;15.60;99.90;;;;;;5093276;28;20405;-62
2023/05/05 06:45:00;;;;;;;;;;;15.80;99.90;;;;;;5092396;28;20088;-62
2023/05/05 06:47:26;;;;;;;;;;;16.00;99.90;;;;;;5093398;28;19985;-62
2023/05/05 06:49:52;;;;;;;;;;;16.20;99.90;;;;;;5093090;28;19984;-62
2023/05/05 06:52:18;;;;;;;;;;;16.80;99.90;;;;;;5072841;28;19992;-62
2023/05/05 06:54:43;;;;;;;;;;;18.90;99.90;;;;;;5078076;28;19996;-62
2023/05/05 06:57:09;;;;;;;;;;;21.40;86.80;;;;;;5076762;28;19997;-64
2023/05/05 06:59:35;;;;;;;;;;;23.30;70.80;;;;;;5078570;28;20031;-64
2023/05/05 07:02:01;;;;;;;;;;;25.00;65.70;;;;;;5081278;28;20003;-62
2023/05/05 07:04:26;;;;;;;;;;;26.70;59.60;;;;;;5088234;28;20083;-62
2023/05/05 07:06:54;;;;;;;;;;;27.40;54.60;;;;;;5088781;28;20004;-61
2023/05/05 07:09:19;;;;;;;;;;;27.60;54.50;;;;;;5086451;28;19989;-63
2023/05/05 07:11:45;;;;;;;;;;;28.10;53.30;;;;;;5085922;28;19996;-63
2023/05/05 07:14:11;;;;;;;;;;;28.80;50.20;;;;;;5081119;28;20079;-64
2023/05/05 07:16:37;;;;;;;;;;;29.50;49.30;;;;;;5072666;28;20092;-62
2023/05/05 07:19:06;;;;;;;;;;;29.90;47.70;;;;;;5072781;28;20005;-61
2023/05/05 07:21:34;;;;;;;;;;;30.10;47.00;;;;;;5071310;28;20329;-61
2023/05/05 07:24:00;;;;;;;;;;;30.70;45.70;;;;;;5078839;28;20439;-62
2023/05/05 07:26:26;;;;;;;;;;;30.70;46.40;;;;;;5072000;28;19994;-61
2023/05/05 07:28:54;;;;;;;;;;;30.30;45.20;;;;;;5076527;28;19993;-63
2023/05/05 07:31:20;;;;;;;;;;;30.10;47.10;;;;;;5083660;28;19993;-62
2023/05/05 07:33:46;;;;;;;;;;;30.20;47.00;;;;;;5083676;28;19989;-65
2023/05/05 07:36:12;;;;;;;;;;;30.90;45.50;;;;;;5086635;28;20035;-64
2023/05/05 07:38:37;;;;;;;;;;;30.40;45.50;;;;;;5085109;28;20114;-65
2023/05/05 07:41:03;;;;;;;;;;;30.00;46.20;;;;;;5084950;28;19996;-65
2023/05/05 07:43:28;;;;;;;;;;;29.90;46.00;;;;;;5091045;28;20000;-61
2023/05/05 07:45:54;;;;;;;;;;;29.80;46.30;;;;;;5079794;28;19996;-62
2023/05/05 07:48:20;;;;;;;;;;;30.30;47.20;;;;;;5085674;28;19996;-66
2023/05/05 07:50:45;;;;;;;;;;;31.40;46.60;;;;;;5081145;28;19989;-65
2023/05/05 07:53:14;;;;;;;;;;;32.10;44.80;;;;;;5085647;28;19993;-63
2023/05/05 07:55:51;;;;;;;;;;;32.60;44.80;;;;;;5082060;28;19989;-65
2023/05/05 07:58:18;;;;;;;;;;;32.70;43.30;;;;;;5083921;28;20114;-63
2023/05/05 08:00:52;;;;;;;;;;;32.10;44.40;;;;;;5090403;28;20044;-62
2023/05/05 08:03:22;;;;;;;;;;;32.40;43.90;;;;;;5075893;28;19999;-63
2023/05/05 08:06:04;;;;;;;;;;;32.60;43.50;;;;;;5077070;28;19990;-65
2023/05/05 08:08:30;;;;;;;;;;;32.30;42.90;;;;;;5080880;28;20076;-63
2023/05/05 08:10:55;;;;;;;;;;;32.70;44.10;;;;;;5078598;28;20554;-63
2023/05/05 08:13:21;;;;;;;;;;;32.50;43.00;;;;;;5083128;28;20355;-65
2023/05/05 08:15:49;;;;;;;;;;;32.70;42.90;;;;;;5078169;28;19991;-63
2023/05/05 08:18:15;;;;;;;;;;;33.00;43.10;;;;;;5077624;28;20072;-63
2023/05/05 08:20:53;;;;;;;;;;;33.30;41.70;;;;;;5085243;28;20140;-62
2023/05/05 08:23:20;;;;;;;;;;;33.60;42.10;;;;;;5078678;28;20040;-66
2023/05/05 08:25:52;;;;;;;;;;;33.40;41.20;;;;;;5077866;28;20217;-63
2023/05/05 08:28:18;;;;;;;;;;;33.30;42.40;;;;;;5076162;28;19986;-63
2023/05/05 08:30:50;;;;;;;;;;;33.40;41.10;;;;;;5082469;28;20352;-64
2023/05/05 08:33:16;;;;;;;;;;;33.60;41.80;;;;;;5081605;28;19988;-63
2023/05/05 08:35:46;;;;;;;;;;;32.40;42.00;;;;;;5082463;28;20367;-65
2023/05/05 08:38:12;;;;;;;;;;;32.20;42.70;;;;;;5081288;28;20004;-62
2023/05/05 08:40:39;;;;;;;;;;;31.60;44.80;;;;;;5075182;28;20523;-62
2023/05/05 08:43:05;;;;;;;;;;;29.80;44.40;;;;;;5070576;28;20464;-61
2023/05/05 08:45:37;;;;;;;;;;;28.60;46.10;;;;;;5082351;28;20000;-63
2023/05/05 08:48:03;;;;;;;;;;;28.30;47.30;;;;;;5086383;28;19989;-64
2023/05/05 08:50:31;;;;;;;;;;;27.40;48.30;;;;;;5070974;28;20375;-63
2023/05/05 08:52:58;;;;;;;;;;;26.80;49.00;;;;;;5082686;28;19999;-66
2023/05/05 08:55:26;;;;;;;;;;;26.60;50.00;;;;;;5079124;28;20001;-63
2023/05/05 08:57:56;;;;;;;;;;;26.30;51.00;;;;;;5082648;28;20611;-64
2023/05/05 09:00:22;;;;;;;;;;;26.20;51.80;;;;;;5088318;28;20049;-66
2023/05/05 09:02:47;;;;;;;;;;;25.70;52.70;;;;;;5085592;28;20098;-68
2023/05/05 09:05:13;;;;;;;;;;;25.10;53.40;;;;;;5075828;28;20000;-67
2023/05/05 09:07:40;;;;;;;;;;;24.80;54.70;;;;;;5075751;28;19993;-66
2023/05/05 09:10:07;;;;;;;;;;;25.50;52.50;;;;;;5093093;28;19997;-66
2023/05/05 09:12:33;;;;;;;;;;;26.00;53.70;;;;;;5091268;28;19985;-65
2023/05/05 09:15:02;;;;;;;;;;;26.50;51.80;;;;;;5072711;28;19999;-65
2023/05/05 09:17:28;;;;;;;;;;;27.50;53.30;;;;;;5081353;28;20033;-63
2023/05/05 09:20:04;;;;;;;;;;;28.30;50.20;;;;;;5084769;28;20040;-68
2023/05/05 09:22:35;;;;;;;;;;;27.80;51.90;;;;;;5085778;28;19996;-67
2023/05/05 09:25:00;;;;;;;;;;;26.90;51.00;;;;;;5088913;28;20020;-66
2023/05/05 09:27:26;;;;;;;;;;;26.10;50.90;;;;;;5092145;28;20138;-67
2023/05/05 09:29:52;;;;;;;;;;;25.80;51.40;;;;;;5080333;28;20064;-68
2023/05/05 09:32:18;;;;;;;;;;;26.60;52.10;;;;;;5093600;28;20453;-64
2023/05/05 09:34:55;;;;;;;;;;;26.50;50.60;;;;;;5077211;28;19989;-65
2023/05/05 09:37:27;;;;;;;;;;;27.00;50.60;;;;;;5090486;28;20027;-66
2023/05/05 09:39:54;;;;;;;;;;;26.60;51.20;;;;;;5085406;28;20023;-64
2023/05/05 09:42:19;;;;;;;;;;;25.80;50.60;;;;;;5083194;28;20088;-62
2023/05/05 09:44:45;;;;;;;;;;;26.00;51.30;;;;;;5087333;28;20100;-64
2023/05/05 09:47:11;;;;;;;;;;;26.90;51.50;;;;;;5081999;28;20047;-61
2023/05/05 09:49:37;;;;;;;;;;;28.00;50.00;;;;;;5072927;28;19986;-64
2023/05/05 09:52:15;;;;;;;;;;;28.70;49.30;;;;;;5080423;28;19993;-65
2023/05/05 09:54:44;;;;;;;;;;;28.90;47.60;;;;;;5078183;28;19993;-68
2023/05/05 09:57:30;;;;;;;;;;;27.80;48.30;;;;;;5074851;28;20003;-67
2023/05/05 09:59:57;;;;;;;;;;;27.20;50.70;;;;;;5100043;28;20499;-66
2023/05/05 10:02:28;;;;;;;;;;;27.50;50.40;;;;;;5087832;28;19999;-63
2023/05/05 10:05:05;;;;;;;;;;;28.20;50.70;;;;;;5080384;28;19993;-65
2023/05/05 10:07:30;;;;;;;;;;;28.70;49.00;;;;;;5087241;28;20031;-63
2023/05/05 10:09:56;;;;;;;;;;;29.10;51.10;;;;;;5081531;28;20420;-65
2023/05/05 10:12:22;;;;;;;;;;;29.40;47.80;;;;;;5083254;28;19989;-68
2023/05/05 10:14:50;;;;;;;;;;;29.10;48.30;;;;;;5092324;28;20016;-64
2023/05/05 10:17:16;;;;;;;;;;;28.70;49.60;;;;;;5090977;28;20062;-64
2023/05/05 10:19:41;;;;;;;;;;;28.50;48.60;;;;;;5080234;28;20032;-65
2023/05/05 10:22:08;;;;;;;;;;;28.80;49.70;;;;;;5093279;28;20431;-66
2023/05/05 10:24:49;;;;;;;;;;;28.40;47.80;;;;;;5093369;28;19989;-64
2023/05/05 10:27:18;;;;;;;;;;;28.60;47.20;;;;;;5083741;28;20000;-63
2023/05/05 10:29:51;;;;;;;;;;;28.30;47.20;;;;;;5086308;28;20435;-67
2023/05/05 10:32:30;;;;;;;;;;;28.50;47.30;;;;;;5079886;28;19993;-64
2023/05/05 10:34:57;;;;;;;;;;;28.80;49.40;;;;;;5080360;28;19996;-62
2023/05/05 10:37:23;;;;;;;;;;;28.90;47.00;;;;;;5073621;28;20003;-62
2023/05/05 10:39:49;;;;;;;;;;;28.20;46.70;;;;;;5077355;28;20119;-62
2023/05/05 10:42:15;;;;;;;;;;;28.10;46.80;;;;;;5076642;28;20092;-65
2023/05/05 10:44:41;;;;;;;;;;;28.40;47.50;;;;;;5087248;28;20199;-63
2023/05/05 10:47:06;;;;;;;;;;;29.00;48.50;;;;;;5079604;28;19997;-65
2023/05/05 10:49:52;;;;;;;;;;;29.50;48.20;;;;;;5086482;28;19997;-66
2023/05/05 10:52:21;;;;;;;;;;;29.20;47.00;;;;;;5070376;28;19996;-62
2023/05/05 10:54:54;;;;;;;;;;;28.20;47.30;;;;;;5082625;28;20055;-62
2023/05/05 10:57:22;;;;;;;;;;;27.30;47.00;;;;;;5073083;28;19997;-66
2023/05/05 10:59:48;;;;;;;;;;;26.70;47.60;;;;;;5074280;28;20520;-63
2023/05/05 11:02:20;;;;;;;;;;;26.40;48.20;;;;;;5069315;28;19996;-65
2023/05/05 11:05:02;;;;;;;;;;;26.20;48.70;;;;;;5081404;28;20096;-66
2023/05/05 11:07:27;;;;;;;;;;;26.00;48.60;;;;;;5077355;28;19993;-60
2023/05/05 11:09:53;;;;;;;;;;;25.90;49.30;;;;;;5084538;28;20084;-61
2023/05/05 11:12:19;;;;;;;;;;;25.90;50.00;;;;;;5082721;28;19997;-62
2023/05/05 11:14:45;;;;;;;;;;;25.70;50.10;;;;;;5079828;28;20046;-62
2023/05/05 11:17:29;;;;;;;;;;;25.40;50.30;;;;;;5087083;28;20031;-63
2023/05/05 11:19:55;;;;;;;;;;;25.30;50.60;;;;;;5090468;28;20004;-65
2023/05/05 11:22:21;;;;;;;;;;;25.90;52.00;;;;;;5090444;28;20597;-65
2023/05/05 11:24:47;;;;;;;;;;;27.00;50.50;;;;;;5092330;28;19989;-65
2023/05/05 11:27:12;;;;;;;;;;;28.00;47.50;;;;;;5080364;28;19993;-64
2023/05/05 11:29:57;;;;;;;;;;;28.40;47.30;;;;;;5081438;28;20019;-66
2023/05/05 11:32:23;;;;;;;;;;;28.40;48.00;;;;;;5074912;28;19989;-66
2023/05/05 11:34:49;;;;;;;;;;;27.90;45.40;;;;;;5078668;28;19992;-65
2023/05/05 11:37:15;;;;;;;;;;;28.40;47.00;;;;;;5084346;28;19990;-66
2023/05/05 11:39:50;;;;;;;;;;;28.80;45.00;;;;;;5091067;28;20017;-64
2023/05/05 11:42:25;;;;;;;;;;;29.20;48.00;;;;;;5080322;28;20058;-63
2023/05/05 11:44:51;;;;;;;;;;;29.70;43.80;;;;;;5075019;28;20367;-64
2023/05/05 11:47:17;;;;;;;;;;;29.70;44.20;;;;;;5076819;28;19993;-65
2023/05/05 11:49:42;;;;;;;;;;;29.40;43.00;;;;;;5073313;28;20096;-64
2023/05/05 11:52:10;;;;;;;;;;;29.00;45.80;;;;;;5081449;28;20414;-65
2023/05/05 11:54:36;;;;;;;;;;;27.70;43.40;;;;;;5088080;28;20439;-66
2023/05/05 11:57:07;;;;;;;;;;;27.10;43.40;;;;;;5082706;28;20276;-67
2023/05/05 11:59:36;;;;;;;;;;;26.70;44.70;;;;;;5084542;28;20470;-64
2023/05/05 12:02:02;;;;;;;;;;;27.00;45.20;;;;;;5084110;28;20001;-64
2023/05/05 12:04:29;;;;;;;;;;;27.50;46.60;;;;;;5084198;28;19990;-63
2023/05/05 12:07:03;;;;;;;;;;;28.30;45.90;;;;;;5082928;28;20024;-62
2023/05/05 12:09:29;;;;;;;;;;;28.60;44.20;;;;;;5087405;28;20062;-62
2023/05/05 12:11:55;;;;;;;;;;;28.30;44.10;;;;;;5089298;28;19993;-62
2023/05/05 12:14:22;;;;;;;;;;;28.00;44.90;;;;;;5087587;28;20087;-60
2023/05/05 12:16:54;;;;;;;;;;;28.00;43.90;;;;;;5086667;28;20415;-60
2023/05/05 12:19:20;;;;;;;;;;;27.90;44.40;;;;;;5086286;28;20432;-61
2023/05/05 12:21:45;;;;;;;;;;;27.90;43.50;;;;;;5088065;28;20336;-61
2023/05/05 12:24:12;;;;;;;;;;;27.90;43.50;;;;;;5089759;28;19985;-61
2023/05/05 12:26:38;;;;;;;;;;;27.70;45.30;;;;;;5090321;28;20035;-62
2023/05/05 12:29:04;;;;;;;;;;;28.40;42.70;;;;;;5090393;28;20017;-60
2023/05/05 12:31:39;;;;;;;;;;;28.80;46.10;;;;;;5091500;28;19989;-62
2023/05/05 12:34:05;;;;;;;;;;;29.20;44.60;;;;;;5093437;28;20045;-62
2023/05/05 12:36:34;;;;;;;;;;;29.60;46.20;;;;;;5094444;28;19993;-61
2023/05/05 12:39:00;;;;;;;;;;;29.70;41.20;;;;;;5094365;28;20074;-61
2023/05/05 12:41:25;;;;;;;;;;;29.70;40.80;;;;;;5095528;28;20439;-60
2023/05/05 12:43:55;;;;;;;;;;;29.90;43.70;;;;;;5094479;28;20435;-61
2023/05/05 12:46:21;;;;;;;;;;;30.40;42.60;;;;;;5096570;28;20020;-62
2023/05/05 12:48:58;;;;;;;;;;;30.80;41.20;;;;;;5096633;28;20027;-61
2023/05/05 12:51:23;;;;;;;;;;;30.70;39.80;;;;;;5096221;28;19999;-62
2023/05/05 12:54:06;;;;;;;;;;;31.10;40.80;;;;;;5094467;28;19989;-62
2023/05/05 12:56:33;;;;;;;;;;;31.20;40.50;;;;;;5096252;28;20522;-62
2023/05/05 12:58:59;;;;;;;;;;;31.20;39.40;;;;;;5096324;28;20012;-61
2023/05/05 13:01:25;;;;;;;;;;;30.30;38.90;;;;;;5096204;28;19984;-61
2023/05/05 13:04:03;;;;;;;;;;;30.30;43.70;;;;;;5096278;28;20347;-60
2023/05/05 13:06:29;;;;;;;;;;;30.10;39.30;;;;;;5096219;28;19992;-62
2023/05/05 13:08:55;;;;;;;;;;;29.70;40.80;;;;;;5096100;28;20354;-60
2023/05/05 13:11:21;;;;;;;;;;;30.00;42.20;;;;;;5095980;28;19988;-60
2023/05/05 13:13:47;;;;;;;;;;;29.90;40.50;;;;;;5095819;28;20461;-60
2023/05/05 13:16:12;;;;;;;;;;;29.60;39.30;;;;;;5095801;28;20038;-63
2023/05/05 13:18:47;;;;;;;;;;;29.70;42.10;;;;;;5095831;28;19992;-62
2023/05/05 13:21:13;;;;;;;;;;;29.30;38.30;;;;;;5095640;28;19992;-62
2023/05/05 13:23:43;;;;;;;;;;;28.60;39.40;;;;;;5095783;28;19993;-61
2023/05/05 13:26:08;;;;;;;;;;;28.30;41.10;;;;;;5095636;28;20121;-62
2023/05/05 13:28:34;;;;;;;;;;;28.70;41.20;;;;;;5095803;28;20013;-62
2023/05/05 13:30:59;;;;;;;;;;;29.20;40.70;;;;;;5095646;28;19991;-62
2023/05/05 13:33:25;;;;;;;;;;;29.50;40.00;;;;;;5095887;28;19989;-63
2023/05/05 13:35:51;;;;;;;;;;;29.90;42.10;;;;;;5095184;28;19989;-62
2023/05/05 13:38:16;;;;;;;;;;;30.20;39.30;;;;;;5095412;28;19985;-63
2023/05/05 13:40:42;;;;;;;;;;;30.50;37.80;;;;;;5095420;28;20000;-61
2023/05/05 13:43:07;;;;;;;;;;;30.70;38.90;;;;;;5094507;28;19985;-63
2023/05/05 13:45:33;;;;;;;;;;;30.40;38.80;;;;;;5095262;28;19981;-60
2023/05/05 13:47:59;;;;;;;;;;;30.40;36.90;;;;;;5095289;28;20069;-60
2023/05/05 13:50:24;;;;;;;;;;;30.30;38.70;;;;;;5095220;28;19985;-63
2023/05/05 13:52:50;;;;;;;;;;;30.30;39.40;;;;;;5095027;28;19985;-60
2023/05/05 13:55:16;;;;;;;;;;;30.20;37.00;;;;;;5095236;28;20489;-61
2023/05/05 13:57:42;;;;;;;;;;;30.30;38.60;;;;;;5095087;28;19988;-61
2023/05/05 14:00:07;;;;;;;;;;;30.70;38.40;;;;;;5093968;28;20374;-62
2023/05/05 14:02:33;;;;;;;;;;;31.20;38.00;;;;;;5095015;28;19985;-60
2023/05/05 14:04:58;;;;;;;;;;;31.20;37.80;;;;;;5094737;28;20375;-62
2023/05/05 14:07:25;;;;;;;;;;;31.20;37.10;;;;;;5095074;28;20439;-62
2023/05/05 14:09:50;;;;;;;;;;;31.10;38.10;;;;;;5094622;28;19989;-60
2023/05/05 14:12:16;;;;;;;;;;;31.20;36.20;;;;;;5094754;28;19988;-62
2023/05/05 14:14:41;;;;;;;;;;;31.50;36.80;;;;;;5095022;28;19996;-62
2023/05/05 14:17:07;;;;;;;;;;;31.80;36.40;;;;;;5094609;28;20027;-62